Time;durP1;ratioP1;P1;durP2;ratioP2;P2;SDS_P1;SDS_P2;PMS_P1;PMS_P2;Temp;Humidity;BMP_temperature;BMP_pressure;BME280_temperature;BME280_humidity;BME280_pressure;Samples;Min_cycle;Max_cycle;Signal;HPM_P1;HPM_P2
2022/04/21 00:00:44;;;;;;;3.05;1.67;;;;;;;8.83;48.28;101166.22;5062976;28;20477;-69
2022/04/21 00:03:09;;;;;;;3.50;1.80;;;;;;;8.78;48.24;101167.91;5062713;28;20596;-70
2022/04/21 00:05:35;;;;;;;3.55;2.35;;;;;;;8.65;48.18;101149.63;5044953;28;20221;-69
2022/04/21 00:08:01;;;;;;;3.28;1.77;;;;;;;8.72;48.18;101165.25;5063099;28;20028;-70
2022/04/21 00:10:28;;;;;;;3.35;2.30;;;;;;;8.63;48.23;101146.16;5066472;28;20029;-70
2022/04/21 00:12:54;;;;;;;2.50;1.80;;;;;;;8.64;48.16;101153.06;5066510;28;20020;-69
2022/04/21 00:15:20;;;;;;;2.45;1.80;;;;;;;8.62;48.18;101147.00;5048525;28;20025;-70
2022/04/21 00:17:46;;;;;;;2.33;1.88;;;;;;;8.59;48.15;101139.22;5066486;28;20037;-70
2022/04/21 00:20:12;;;;;;;3.13;2.00;;;;;;;8.59;48.20;101146.09;5066455;28;20074;-71
2022/04/21 00:25:22;;;;;;;3.17;2.03;;;;;;;8.54;48.32;101143.44;5066501;28;20039;-71
2022/04/21 00:27:48;;;;;;;4.43;1.90;;;;;;;8.49;48.43;101133.03;5066306;28;20056;-72
2022/04/21 00:30:16;;;;;;;4.90;1.98;;;;;;;8.46;48.51;101138.16;5064952;28;20020;-69
2022/04/21 00:32:42;;;;;;;3.05;1.50;;;;;;;8.50;48.22;101139.94;5065793;28;20044;-70
2022/04/21 00:35:12;;;;;;;2.17;1.40;;;;;;;8.46;48.17;101143.34;5065779;28;20017;-69
2022/04/21 00:37:48;;;;;;;3.45;1.80;;;;;;;8.45;48.26;101143.31;5066007;28;20020;-70
2022/04/21 00:40:15;;;;;;;3.28;1.95;;;;;;;8.45;48.23;101145.91;5066000;28;20032;-70
2022/04/21 00:42:41;;;;;;;7.47;2.50;;;;;;;8.45;48.18;101139.00;5065805;28;20025;-70
2022/04/21 00:45:07;;;;;;;2.33;1.70;;;;;;;8.40;48.34;101146.69;5066048;28;20227;-71
2022/04/21 00:47:32;;;;;;;2.40;1.85;;;;;;;8.34;48.40;101133.69;5065976;28;20029;-70
2022/04/21 00:49:58;;;;;;;2.97;1.92;;;;;;;8.29;48.47;101133.63;5065470;28;20149;-69
2022/04/21 00:52:25;;;;;;;3.92;2.22;;;;;;;8.32;48.45;101140.59;5065759;28;20021;-69
2022/04/21 00:54:50;;;;;;;6.25;2.38;;;;;;;8.27;48.70;101140.53;5065668;28;20097;-69
2022/04/21 00:57:16;;;;;;;2.53;1.77;;;;;;;8.26;48.66;101145.69;5065528;28;20021;-69
2022/04/21 00:59:44;;;;;;;4.78;2.15;;;;;;;8.22;48.88;101141.28;5065633;28;20051;-70
2022/04/21 01:04:55;;;;;;;3.30;1.90;;;;;;;8.18;49.07;101137.78;5065115;28;20063;-71
2022/04/21 01:07:20;;;;;;;4.07;2.33;;;;;;;8.15;49.19;101133.47;5065545;28;20511;-70
2022/04/21 01:09:46;;;;;;;4.95;2.40;;;;;;;8.07;49.27;101122.13;5065599;28;20504;-71
2022/04/21 01:12:13;;;;;;;2.95;2.08;;;;;;;8.08;49.32;101129.06;5065382;28;20021;-71
2022/04/21 01:14:39;;;;;;;3.53;2.13;;;;;;;8.09;49.30;101125.63;5047144;28;20025;-69
2022/04/21 01:17:05;;;;;;;2.25;1.55;;;;;;;8.07;49.47;101129.88;5046978;28;20017;-70
2022/04/21 01:19:31;;;;;;;2.33;2.05;;;;;;;7.98;49.60;101129.78;5064150;28;20029;-69
2022/04/21 01:21:56;;;;;;;3.13;1.90;;;;;;;7.98;49.63;101133.22;5064918;28;20101;-71
2022/04/21 01:24:22;;;;;;;3.10;2.20;;;;;;;7.91;49.93;101121.03;5065220;28;20025;-71
2022/04/21 01:26:47;;;;;;;2.65;1.88;;;;;;;7.94;49.85;101124.56;5065022;28;20017;-71
2022/04/21 01:29:13;;;;;;;3.30;2.10;;;;;;;7.89;49.91;101127.94;5065151;28;20031;-72
2022/04/21 01:31:39;;;;;;;3.30;2.00;;;;;;;7.81;49.99;101126.09;5046822;28;20039;-71
2022/04/21 01:34:04;;;;;;;4.88;2.20;;;;;;;7.78;50.13;101123.47;5064267;28;20040;-69
2022/04/21 01:36:30;;;;;;;4.30;1.95;;;;;;;7.74;50.35;101111.34;5065098;28;20025;-71
2022/04/21 01:41:40;;;;;;;2.55;1.75;;;;;;;7.73;50.53;101124.25;5064754;28;20039;-70
2022/04/21 01:44:05;;;;;;;3.38;2.20;;;;;;;7.66;50.71;101113.81;5064776;28;20021;-70
2022/04/21 01:46:30;;;;;;;3.85;2.30;;;;;;;7.66;50.73;101119.00;5064787;28;20381;-71
2022/04/21 01:48:56;;;;;;;3.80;2.40;;;;;;;7.57;51.22;101113.69;5064298;28;20025;-69
2022/04/21 01:51:21;;;;;;;4.40;2.33;;;;;;;7.63;51.10;101112.91;5064955;28;20021;-71
2022/04/21 01:53:46;;;;;;;4.22;1.67;;;;;;;7.56;51.15;101119.69;5064767;28;20024;-72
2022/04/21 01:56:12;;;;;;;3.05;1.88;;;;;;;7.57;51.41;101106.78;5064564;28;20025;-71
2022/04/21 01:58:37;;;;;;;3.35;1.55;;;;;;;7.56;51.64;101106.75;5064630;28;20029;-71
2022/04/21 02:01:03;;;;;;;8.10;3.33;;;;;;;7.48;51.70;101110.94;5046489;28;20020;-71
2022/04/21 02:03:30;;;;;;;2.92;2.13;;;;;;;7.54;51.82;101108.47;5064114;28;20032;-71
2022/04/21 02:05:56;;;;;;;4.40;2.22;;;;;;;7.46;51.87;101115.22;5064543;28;20044;-71
2022/04/21 02:08:21;;;;;;;2.85;2.03;;;;;;;7.46;51.93;101115.22;5064216;28;20032;-71
2022/04/21 02:10:47;;;;;;;3.88;2.20;;;;;;;7.33;52.30;101102.13;5064243;28;20025;-70
2022/04/21 02:13:13;;;;;;;5.78;2.25;;;;;;;7.32;52.21;101108.09;5064493;28;20032;-71
2022/04/21 02:15:38;;;;;;;2.45;1.92;;;;;;;7.34;52.26;101111.59;5064203;28;20025;-70
2022/04/21 02:18:04;;;;;;;6.15;2.63;;;;;;;7.29;52.63;101098.59;5064136;28;20050;-70
2022/04/21 02:20:30;;;;;;;3.55;2.40;;;;;;;7.25;52.65;101101.13;5064097;28;20117;-70
2022/04/21 02:22:56;;;;;;;2.95;2.40;;;;;;;7.24;52.71;101104.53;5064034;28;20068;-70
2022/04/21 02:25:21;;;;;;;4.65;2.40;;;;;;;7.27;52.67;101104.56;5064105;28;20025;-71
2022/04/21 02:27:48;;;;;;;4.75;2.40;;;;;;;7.16;52.68;101102.69;5064011;28;20028;-70
2022/04/21 02:30:15;;;;;;;3.47;2.25;;;;;;;7.14;52.86;101101.78;5064158;28;20049;-72
2022/04/21 02:32:41;;;;;;;3.25;2.60;;;;;;;7.14;52.76;101098.34;5063720;28;20041;-71
2022/04/21 02:35:08;;;;;;;3.83;2.50;;;;;;;7.14;52.89;101101.78;5064075;28;20538;-69
2022/04/21 02:37:36;;;;;;;3.63;2.50;;;;;;;7.07;53.39;101092.22;5064763;28;20412;-70
2022/04/21 02:40:03;;;;;;;2.90;2.20;;;;;;;7.10;53.19;101102.59;5065213;28;20342;-70
2022/04/21 02:42:28;;;;;;;6.15;2.35;;;;;;;7.05;53.33;101101.63;5063683;28;20028;-69
2022/04/21 02:44:53;;;;;;;3.03;2.00;;;;;;;7.04;53.34;101107.66;5063730;28;20017;-70
2022/04/21 02:47:19;;;;;;;3.35;2.40;;;;;;;6.91;53.60;101102.28;5063585;28;20497;-69
2022/04/21 02:49:48;;;;;;;4.80;2.28;;;;;;;6.94;53.59;101091.13;5063407;28;20052;-69
2022/04/21 02:52:13;;;;;;;5.05;2.28;;;;;;;6.92;53.66;101104.00;5063853;28;20033;-70
2022/04/21 02:57:25;;;;;;;4.15;2.45;;;;;;;6.94;53.65;101096.28;5063510;28;20043;-70
2022/04/21 02:59:53;;;;;;;5.35;2.42;;;;;;;6.85;53.71;101086.69;5062137;28;20112;-71
2022/04/21 03:02:20;;;;;;;3.20;2.10;;;;;;;6.91;53.79;101086.78;5063348;28;20087;-69
2022/04/21 03:04:46;;;;;;;3.50;2.40;;;;;;;6.93;53.89;101090.25;5063007;28;20024;-70
2022/04/21 03:07:13;;;;;;;6.15;2.28;;;;;;;6.87;53.65;101084.97;5063188;28;20036;-71
2022/04/21 03:09:39;;;;;;;5.22;2.10;;;;;;;7.04;53.74;101097.31;5063418;28;20353;-70
2022/04/21 03:12:05;;;;;;;4.93;2.58;;;;;;;7.00;53.85;101091.22;5045502;28;20025;-70
2022/04/21 03:14:31;;;;;;;4.13;2.50;;;;;;;6.97;53.88;101091.19;5063134;28;20059;-70
2022/04/21 03:16:59;;;;;;;4.63;2.53;;;;;;;7.01;53.82;101074.88;5063391;28;20029;-71
2022/04/21 03:19:25;;;;;;;3.42;2.33;;;;;;;7.06;53.72;101085.31;5045247;28;20330;-70
2022/04/21 03:24:35;;;;;;;3.92;2.42;;;;;;;7.00;53.73;101082.59;5063065;28;20044;-70
2022/04/21 03:27:01;;;;;;;3.65;2.28;;;;;;;6.89;53.87;101080.72;5063214;28;20025;-71
2022/04/21 03:29:27;;;;;;;3.30;2.10;;;;;;;6.93;54.14;101081.66;5063261;28;20028;-71
2022/04/21 03:31:52;;;;;;;3.08;2.40;;;;;;;6.92;54.05;101083.34;5062989;28;20033;-70
2022/04/21 03:34:19;;;;;;;5.65;2.60;;;;;;;6.91;54.16;101081.63;5062980;28;20040;-70
2022/04/21 03:36:49;;;;;;;4.18;2.67;;;;;;;6.88;54.17;101079.00;5063114;28;20047;-70
2022/04/21 03:39:16;;;;;;;3.75;2.08;;;;;;;6.84;54.23;101090.09;5062916;28;20032;-72
2022/04/21 03:41:42;;;;;;;5.10;2.45;;;;;;;6.81;54.35;101097.78;5063020;28;20108;-70
2022/04/21 03:44:09;;;;;;;5.25;2.55;;;;;;;6.77;54.52;101093.41;5064996;28;20076;-69
2022/04/21 03:46:34;;;;;;;3.28;2.05;;;;;;;6.75;54.32;101092.50;5066950;28;20025;-71
2022/04/21 03:49:00;;;;;;;4.68;2.55;;;;;;;6.73;54.52;101100.22;5066859;28;20372;-69
2022/04/21 03:51:27;;;;;;;4.43;2.20;;;;;;;6.72;54.53;101095.03;5067135;28;20029;-70
2022/04/21 03:53:54;;;;;;;4.00;2.70;;;;;;;6.77;54.52;101103.72;5066996;28;20036;-70
2022/04/21 03:56:20;;;;;;;4.38;3.13;;;;;;;6.72;54.66;101100.19;5066939;28;20029;-71
2022/04/21 03:58:45;;;;;;;5.80;2.65;;;;;;;6.70;54.91;101095.00;5066789;28;20024;-70
2022/04/21 04:01:11;;;;;;;5.20;2.47;;;;;;;6.74;55.00;101101.09;5048857;28;20108;-70
2022/04/21 04:03:36;;;;;;;5.25;2.85;;;;;;;6.66;55.10;101099.22;5066786;28;20610;-70
2022/04/21 04:06:01;;;;;;;5.05;2.90;;;;;;;6.71;55.04;101109.63;5066754;28;20033;-72
2022/04/21 04:11:10;;;;;;;4.70;2.60;;;;;;;6.62;55.24;101106.88;5066792;28;20039;-71
2022/04/21 04:13:36;;;;;;;3.75;2.92;;;;;;;6.59;55.34;101104.25;5066542;28;20013;-71
2022/04/21 04:16:01;;;;;;;4.95;2.50;;;;;;;6.57;55.26;101099.94;5066419;28;20036;-71
2022/04/21 04:18:28;;;;;;;3.45;2.63;;;;;;;6.60;55.39;101104.28;5048253;28;20063;-71
2022/04/21 04:20:54;;;;;;;4.22;2.83;;;;;;;6.60;55.54;101106.84;5066489;28;20043;-70
2022/04/21 04:23:20;;;;;;;4.38;2.60;;;;;;;6.66;55.54;101108.69;5066554;28;20017;-70
2022/04/21 04:25:47;;;;;;;7.20;3.03;;;;;;;6.86;55.69;101113.34;5066327;28;20025;-72
2022/04/21 04:28:13;;;;;;;4.72;2.60;;;;;;;7.19;55.60;101112.19;5066926;28;20040;-71
2022/04/21 04:30:39;;;;;;;5.13;2.50;;;;;;;7.62;54.69;101103.41;5067145;28;20074;-72
2022/04/21 04:33:05;;;;;;;5.05;2.85;;;;;;;7.92;53.78;101105.56;5066537;28;20438;-70
2022/04/21 04:35:31;;;;;;;5.25;2.40;;;;;;;8.30;52.95;101103.47;5067783;28;20021;-71
2022/04/21 04:37:57;;;;;;;4.70;2.50;;;;;;;8.54;52.68;101102.94;5068122;28;20108;-72
2022/04/21 04:40:23;;;;;;;4.18;2.63;;;;;;;8.84;52.17;101087.69;5067882;28;20063;-72
2022/04/21 04:42:48;;;;;;;6.38;2.83;;;;;;;9.14;50.98;101101.78;5067869;28;20027;-71
2022/04/21 04:47:57;;;;;;;4.45;2.45;;;;;;;9.54;50.63;101108.13;5067222;28;20063;-71
2022/04/21 04:50:23;;;;;;;4.22;2.67;;;;;;;9.84;49.75;101105.75;5066237;28;20020;-71
2022/04/21 04:52:48;;;;;;;4.18;2.47;;;;;;;10.17;49.16;101107.63;5066857;28;20064;-70
2022/04/21 04:55:14;;;;;;;3.85;2.15;;;;;;;10.59;48.41;101096.56;5066068;28;20125;-72
2022/04/21 04:57:39;;;;;;;4.68;2.85;;;;;;;10.77;47.47;101107.84;5066233;28;20029;-72
2022/04/21 05:00:08;;;;;;;5.15;2.83;;;;;;;11.02;46.58;101093.16;5068508;28;20096;-71
2022/04/21 05:02:34;;;;;;;3.30;2.20;;;;;;;11.27;46.33;101089.72;5066408;28;20084;-71
2022/04/21 05:05:00;;;;;;;4.57;2.88;;;;;;;11.31;45.70;101088.84;5066030;28;20032;-71
2022/04/21 05:07:28;;;;;;;3.97;2.75;;;;;;;11.61;45.78;101091.41;5065784;28;20021;-71
2022/04/21 05:09:53;;;;;;;4.78;2.40;;;;;;;12.06;45.31;101096.50;5065712;28;20021;-70
2022/04/21 05:12:19;;;;;;;7.47;2.70;;;;;;;12.33;43.88;101107.69;5065630;28;20076;-70
2022/04/21 05:14:48;;;;;;;4.47;2.38;;;;;;;12.31;43.18;101093.84;5065524;28;20468;-73
2022/04/21 05:17:14;;;;;;;3.95;2.50;;;;;;;12.20;43.10;101106.91;5065696;28;20032;-72
2022/04/21 05:19:39;;;;;;;5.20;2.60;;;;;;;12.29;43.42;101102.50;5065099;28;20053;-70
2022/04/21 05:22:08;;;;;;;2.97;2.00;;;;;;;12.49;42.20;101099.84;5065230;28;20029;-72
2022/04/21 05:24:34;;;;;;;3.30;2.22;;;;;;;12.39;42.36;101094.69;5065211;28;20025;-71
2022/04/21 05:27:01;;;;;;;5.00;2.60;;;;;;;12.46;41.99;101099.84;5065166;28;20105;-70
2022/04/21 05:32:11;;;;;;;4.55;2.60;;;;;;;12.52;42.37;101092.84;5064952;28;20043;-70
2022/04/21 05:34:37;;;;;;;4.03;2.65;;;;;;;12.75;42.07;101097.06;5065086;28;20106;-70
2022/04/21 05:37:03;;;;;;;4.22;2.58;;;;;;;12.73;41.82;101092.75;5064987;28;20021;-71
2022/04/21 05:39:30;;;;;;;5.32;2.35;;;;;;;12.78;42.02;101083.13;5064833;28;20024;-70
2022/04/21 05:41:57;;;;;;;2.83;2.15;;;;;;;13.14;41.30;101102.00;5065249;28;20044;-72
2022/04/21 05:44:23;;;;;;;3.35;2.58;;;;;;;12.96;40.82;101094.31;5064017;28;20028;-70
2022/04/21 05:46:50;;;;;;;3.25;2.40;;;;;;;12.83;41.07;101080.50;5064940;28;20029;-70
2022/04/21 05:49:16;;;;;;;4.15;2.53;;;;;;;12.81;41.43;101083.13;5064897;28;20017;-72
2022/04/21 05:51:42;;;;;;;4.22;2.53;;;;;;;13.01;40.67;101079.50;5064750;28;20021;-69
2022/04/21 05:54:08;;;;;;;3.78;2.55;;;;;;;13.00;40.78;101083.84;5046582;28;20021;-70
2022/04/21 05:56:34;;;;;;;4.35;2.30;;;;;;;13.16;41.01;101080.28;5064338;28;20021;-69
2022/04/21 05:59:00;;;;;;;3.50;2.15;;;;;;;13.06;40.42;101085.56;5064161;28;20036;-70
2022/04/21 06:01:25;;;;;;;3.70;1.98;;;;;;;13.09;40.67;101092.47;5064197;28;20021;-71
2022/04/21 06:03:52;;;;;;;7.75;2.85;;;;;;;13.01;40.37;101082.13;5063833;28;20097;-72
2022/04/21 06:06:18;;;;;;;5.15;2.50;;;;;;;12.85;40.67;101083.97;5063503;28;20028;-72
2022/04/21 06:08:44;;;;;;;4.00;3.10;;;;;;;12.79;40.37;101092.72;5064085;28;20025;-72
2022/04/21 06:11:11;;;;;;;4.05;2.67;;;;;;;12.51;41.16;101079.84;5063920;28;20031;-69
2022/04/21 06:13:37;;;;;;;4.93;2.60;;;;;;;12.46;41.71;101097.25;5063883;28;20049;-70
2022/04/21 06:16:02;;;;;;;7.03;2.60;;;;;;;12.47;41.60;101109.38;5063711;28;20389;-71
2022/04/21 06:18:27;;;;;;;3.42;1.88;;;;;;;12.38;41.74;101090.31;5063489;28;20491;-67
2022/04/21 06:20:53;;;;;;;5.10;2.53;;;;;;;12.30;41.68;101099.06;5063416;28;20017;-70
2022/04/21 06:23:20;;;;;;;6.03;2.75;;;;;;;12.11;42.24;101086.97;5063488;28;20456;-69
2022/04/21 06:25:46;;;;;;;4.63;2.17;;;;;;;12.06;42.00;101100.84;5063649;28;20089;-71
2022/04/21 06:28:12;;;;;;;3.90;2.38;;;;;;;11.81;42.54;101080.97;5063693;28;20025;-71
2022/04/21 06:30:39;;;;;;;3.15;2.13;;;;;;;11.96;42.78;101106.09;5063444;28;20096;-70
2022/04/21 06:33:05;;;;;;;2.88;1.75;;;;;;;11.88;42.39;101095.72;5063355;28;20049;-71
2022/04/21 06:35:31;;;;;;;4.53;2.67;;;;;;;11.67;43.35;101086.22;5063230;28;20099;-74
2022/04/21 06:37:56;;;;;;;3.50;2.30;;;;;;;11.90;43.06;101086.13;5063528;28;20525;-73
2022/04/21 06:40:22;;;;;;;6.32;2.50;;;;;;;12.13;43.06;101081.75;5045623;28;20024;-74
2022/04/21 06:42:48;;;;;;;4.80;2.97;;;;;;;12.47;42.59;101083.34;5063608;28;20045;-74
2022/04/21 06:48:04;;;;;;;4.95;2.70;;;;;;;12.89;41.59;101075.28;5063746;28;20097;-73
2022/04/21 06:50:38;;;;;;;4.00;2.33;;;;;;;13.10;41.42;101089.88;5063271;28;20021;-74
2022/04/21 06:53:05;;;;;;;4.60;1.98;;;;;;;13.18;41.03;101079.38;5045454;28;20468;-74
2022/04/21 06:55:31;;;;;;;4.72;2.45;;;;;;;13.29;40.51;101088.84;5063294;28;20048;-74
2022/04/21 06:57:57;;;;;;;4.18;2.50;;;;;;;13.39;40.45;101083.53;5063608;28;20082;-75
2022/04/21 07:00:24;;;;;;;6.82;2.25;;;;;;;13.42;40.25;101076.56;5061883;28;20024;-74
2022/04/21 07:02:57;;;;;;;5.43;2.60;;;;;;;13.39;40.77;101075.72;5061814;28;20029;-73
2022/04/21 07:05:24;;;;;;;3.28;1.90;;;;;;;13.69;40.22;101098.09;5062974;28;20098;-73
2022/04/21 07:07:50;;;;;;;3.00;2.20;;;;;;;13.57;39.61;101093.84;5045424;28;20051;-74
2022/04/21 07:10:18;;;;;;;3.08;2.13;;;;;;;13.20;40.37;101090.66;5063190;28;20029;-73
2022/04/21 07:12:43;;;;;;;5.20;1.95;;;;;;;13.18;40.75;101095.00;5063381;28;20082;-73
2022/04/21 07:15:10;;;;;;;3.55;2.47;;;;;;;13.32;41.06;101094.88;5063237;28;20484;-74
2022/04/21 07:17:37;;;;;;;3.38;2.33;;;;;;;13.72;40.61;101095.44;5044446;28;20163;-73
2022/04/21 07:20:04;;;;;;;5.53;2.35;;;;;;;14.10;39.56;101104.59;5061406;28;20032;-74
2022/04/21 07:22:30;;;;;;;10.25;2.70;;;;;;;14.37;39.65;101110.34;5062937;28;20029;-74
2022/04/21 07:24:56;;;;;;;3.65;2.28;;;;;;;14.73;39.14;101106.34;5045075;28;20078;-73
2022/04/21 07:27:22;;;;;;;2.92;2.15;;;;;;;14.97;38.48;101104.28;5062850;28;20025;-74
2022/04/21 07:29:49;;;;;;;8.77;3.20;;;;;;;15.26;38.18;101108.19;5062902;28;20033;-73
2022/04/21 07:32:14;;;;;;;3.60;2.10;;;;;;;15.75;37.08;101113.44;5062868;28;20037;-74
2022/04/21 07:34:40;;;;;;;3.20;2.05;;;;;;;15.79;36.70;101112.50;5062583;28;20021;-72
2022/04/21 07:37:07;;;;;;;7.28;2.22;;;;;;;15.71;36.57;101120.50;5062990;28;20016;-73
2022/04/21 07:39:32;;;;;;;4.63;2.60;;;;;;;15.58;36.50;101111.13;5045021;28;20408;-73
2022/04/21 07:41:58;;;;;;;5.18;2.42;;;;;;;15.65;36.67;101114.50;5062740;28;20033;-73
2022/04/21 07:44:25;;;;;;;3.35;1.98;;;;;;;15.76;36.20;101117.81;5061383;28;20029;-74
2022/04/21 07:46:50;;;;;;;4.55;2.50;;;;;;;15.66;36.23;101116.22;5062860;28;20020;-73
2022/04/21 07:54:43;;;;;;;6.82;2.22;;;;;;;15.54;36.59;101115.59;5062882;28;20036;-72
2022/04/21 07:57:10;;;;;;;7.95;2.58;;;;;;;15.91;36.69;101127.09;5062873;28;20033;-74
2022/04/21 07:59:35;;;;;;;2.67;1.80;;;;;;;16.23;35.61;101130.00;5062927;28;20044;-73
2022/04/21 08:02:01;;;;;;;3.13;1.77;;;;;;;16.26;35.59;101136.94;5061473;28;20024;-74
2022/04/21 08:04:27;;;;;;;4.80;2.22;;;;;;;16.28;35.61;101143.88;5044288;28;20017;-71
2022/04/21 08:06:54;;;;;;;5.90;2.92;;;;;;;16.42;35.17;101142.75;5062678;28;20081;-74
2022/04/21 08:09:19;;;;;;;7.95;2.10;;;;;;;16.36;35.42;101128.00;5044840;28;20452;-72
2022/04/21 08:11:44;;;;;;;5.25;2.05;;;;;;;16.53;35.13;101125.03;5062707;28;20088;-73
2022/04/21 08:14:10;;;;;;;3.28;1.85;;;;;;;16.80;34.91;101134.91;5062557;28;20025;-73
2022/04/21 08:16:35;;;;;;;3.05;1.92;;;;;;;16.76;34.76;101131.50;5062690;28;20050;-73
2022/04/21 08:19:00;;;;;;;3.30;1.90;;;;;;;16.80;34.46;101129.69;5044276;28;20122;-72
2022/04/21 08:21:26;;;;;;;3.40;1.73;;;;;;;17.07;34.68;101122.91;5062443;28;20021;-73
2022/04/21 08:23:51;;;;;;;5.13;2.50;;;;;;;17.50;34.05;101114.88;5061180;28;20029;-72
2022/04/21 08:34:30;;;;;;;7.65;2.50;;;;;;;16.98;34.06;101128.41;5065851;28;20101;-73
2022/04/21 08:36:55;;;;;;;2.85;2.30;;;;;;;17.01;34.21;101123.06;5048200;28;20048;-73
2022/04/21 08:39:21;;;;;;;4.32;1.95;;;;;;;17.41;33.75;101096.75;5047912;28;20021;-73
2022/04/21 08:41:48;;;;;;;6.65;1.90;;;;;;;17.65;32.84;101102.25;5047777;28;20036;-73
2022/04/21 08:44:20;;;;;;;5.47;2.15;;;;;;;17.33;33.38;101097.81;5065851;28;20443;-73
2022/04/21 08:46:48;;;;;;;4.80;2.22;;;;;;;17.64;33.57;101097.91;5065795;28;20029;-73
2022/04/21 08:49:17;;;;;;;5.68;2.05;;;;;;;17.92;32.55;101113.75;5065592;28;20392;-74
2022/04/21 08:51:43;;;;;;;10.63;2.60;;;;;;;17.71;32.87;101117.84;5065706;28;20036;-73
2022/04/21 08:54:08;;;;;;;3.10;1.75;;;;;;;17.80;33.02;101120.22;5065601;28;20395;-73
2022/04/21 08:56:34;;;;;;;4.80;2.45;;;;;;;17.68;32.74;101095.13;5047543;28;20021;-72
2022/04/21 08:59:00;;;;;;;5.13;1.90;;;;;;;17.86;32.44;101110.47;5065685;28;20033;-72
2022/04/21 09:01:25;;;;;;;5.25;1.90;;;;;;;17.77;32.85;101112.44;5065340;28;20064;-72
2022/04/21 09:03:50;;;;;;;8.05;2.40;;;;;;;17.90;32.96;101114.72;5065050;28;20020;-73
2022/04/21 09:06:16;;;;;;;4.35;2.05;;;;;;;18.27;32.43;101111.06;5065339;28;20146;-73
2022/04/21 09:08:42;;;;;;;3.90;2.05;;;;;;;18.52;31.69;101119.97;5065633;28;20108;-73
2022/04/21 09:11:15;;;;;;;2.38;1.23;;;;;;;18.37;31.53;101121.31;5065400;28;20032;-73
2022/04/21 09:13:42;;;;;;;2.65;1.60;;;;;;;18.24;31.42;101105.03;5065459;28;20085;-71
2022/04/21 09:16:10;;;;;;;5.53;2.17;;;;;;;18.07;32.25;101101.09;5065176;28;20032;-73
2022/04/21 09:18:38;;;;;;;4.85;2.03;;;;;;;18.59;32.24;101116.25;5047261;28;20017;-73
2022/04/21 09:21:14;;;;;;;3.13;2.40;;;;;;;19.25;31.12;101104.53;5065239;28;20013;-73
2022/04/21 09:23:40;;;;;;;6.63;2.17;;;;;;;19.38;30.86;101096.19;5065048;28;20033;-73
2022/04/21 09:26:07;;;;;;;3.03;1.92;;;;;;;19.78;30.53;101089.53;5063527;28;20400;-73
2022/04/21 09:28:33;;;;;;;2.60;1.70;;;;;;;19.98;29.58;101098.50;5064880;28;20035;-72
2022/04/21 09:31:00;;;;;;;4.50;2.05;;;;;;;19.84;29.68;101100.78;5065039;28;20121;-72
2022/04/21 09:33:31;;;;;;;2.50;1.73;;;;;;;19.62;29.77;101104.16;5043343;28;20477;-71
2022/04/21 09:35:59;;;;;;;3.92;2.38;;;;;;;19.37;30.46;101105.91;5043334;28;20044;-72
2022/04/21 09:38:25;;;;;;;3.38;2.13;;;;;;;19.52;30.33;101095.75;5044805;28;20036;-71
2022/04/21 09:40:50;;;;;;;2.72;1.60;;;;;;;19.89;30.08;101104.94;5043814;28;20029;-73
2022/04/21 09:43:27;;;;;;;4.53;1.98;;;;;;;20.05;29.75;101094.72;5044743;28;20422;-71
2022/04/21 09:46:08;;;;;;;4.22;2.00;;;;;;;20.13;28.62;101080.38;5044476;28;20025;-72
2022/04/21 09:48:33;;;;;;;3.35;1.60;;;;;;;19.90;29.31;101080.34;5043336;28;20025;-72
2022/04/21 09:51:11;;;;;;;6.97;1.90;;;;;;;20.14;30.15;101090.03;5044465;28;20032;-72
2022/04/21 09:54:02;;;;;;;3.63;1.92;;;;;;;20.79;28.74;101086.63;5044524;28;20017;-72
2022/04/21 09:56:41;;;;;;;2.58;2.03;;;;;;;20.63;28.62;101078.47;5043245;28;20116;-72
2022/04/21 09:59:09;;;;;;;2.88;1.67;;;;;;;20.61;28.91;101080.31;5044396;28;20021;-71
2022/04/21 10:01:38;;;;;;;6.05;2.10;;;;;;;20.77;28.85;101072.63;5044304;28;20041;-72
2022/04/21 10:04:08;;;;;;;3.92;2.08;;;;;;;20.73;28.09;101087.75;5043961;28;20030;-72
2022/04/21 10:06:37;;;;;;;4.93;1.95;;;;;;;20.25;28.70;101073.81;5044250;28;20615;-70
2022/04/21 10:09:02;;;;;;;4.32;1.75;;;;;;;20.27;29.13;101064.06;5044626;28;20021;-71
2022/04/21 10:11:28;;;;;;;3.65;1.95;;;;;;;20.49;29.02;101074.63;5044179;28;20037;-71
2022/04/21 10:13:55;;;;;;;2.75;1.48;;;;;;;20.52;28.71;101058.69;5044172;28;20085;-71
2022/04/21 10:16:22;;;;;;;4.45;2.13;;;;;;;20.66;28.72;101067.81;5044437;28;20021;-71
2022/04/21 10:18:52;;;;;;;2.17;1.45;;;;;;;20.95;28.01;101070.19;5042790;28;20022;-71
2022/04/21 10:21:30;;;;;;;3.38;1.50;;;;;;;21.02;27.86;101058.47;5059289;28;20021;-71
2022/04/21 10:23:56;;;;;;;2.58;1.50;;;;;;;21.26;28.13;101063.63;5043945;28;20028;-70
2022/04/21 10:26:43;;;;;;;3.47;1.80;;;;;;;21.50;27.52;101050.28;5043962;28;20077;-71
2022/04/21 10:29:23;;;;;;;4.45;1.50;;;;;;;21.29;27.43;101037.94;5043962;28;20211;-71
2022/04/21 10:32:05;;;;;;;3.10;1.30;;;;;;;21.30;27.38;101050.22;5044563;28;20028;-70
2022/04/21 10:34:32;;;;;;;;;;;;;;;20.81;27.78;101067.16;5064149;28;20508;-70
2022/04/21 10:37:17;;;;;;;5.20;1.60;;;;;;;20.59;28.01;101047.88;5045891;28;19908;-70
2022/04/21 10:40:06;;;;;;;4.57;1.48;;;;;;;20.55;28.41;101058.56;5063682;28;20051;-70
2022/04/21 10:43:03;;;;;;;5.15;2.00;;;;;;;20.71;28.69;101042.09;5045627;28;20030;-70
2022/04/21 10:45:32;;;;;;;2.40;1.42;;;;;;;21.07;28.18;101030.06;5047442;28;20032;-69
2022/04/21 10:48:16;;;;;;;3.28;1.30;;;;;;;21.82;27.10;101047.13;5063391;28;20048;-69
2022/04/21 10:50:43;;;;;;;1.50;1.13;;;;;;;21.64;26.90;101042.59;5063275;28;20021;-70
2022/04/21 10:58:37;;;;;;;3.20;1.50;;;;;;;20.73;27.33;101044.69;5063344;28;20054;-70
2022/04/21 11:01:09;;;;;;;3.25;1.63;;;;;;;20.56;27.72;101027.75;5045523;28;20025;-70
2022/04/21 11:03:36;;;;;;;4.43;1.92;;;;;;;20.32;28.10;101027.81;5063160;28;20025;-70
2022/04/21 11:06:09;;;;;;;2.60;1.40;;;;;;;20.62;27.84;101032.78;5063018;28;20036;-69
2022/04/21 11:08:35;;;;;;;3.10;1.52;;;;;;;20.58;28.17;101032.97;5063156;28;20021;-70
2022/04/21 11:11:02;;;;;;;2.28;1.40;;;;;;;20.85;27.93;101038.00;5063441;28;20028;-70
2022/04/21 11:13:50;;;;;;;4.43;1.63;;;;;;;21.35;27.63;101022.75;5063173;28;20397;-69
2022/04/21 11:16:48;;;;;;;3.22;1.77;;;;;;;21.72;27.04;101028.16;5045290;28;20021;-70
2022/04/21 11:19:28;;;;;;;1.77;0.95;;;;;;;22.14;25.76;101024.47;5063194;28;20020;-69
2022/04/21 11:22:04;;;;;;;3.65;1.30;;;;;;;21.89;25.16;101020.34;5063060;28;20075;-69
2022/04/21 11:25:03;;;;;;;2.28;1.30;;;;;;;21.21;25.81;101021.59;5062692;28;20036;-71
2022/04/21 11:27:31;;;;;;;2.13;1.20;;;;;;;19.88;27.22;101020.69;5063023;28;20025;-69
2022/04/21 11:30:02;;;;;;;2.00;1.00;;;;;;;19.05;28.06;101048.16;5062993;28;20043;-71
2022/04/21 11:32:27;;;;;;;2.63;1.40;;;;;;;18.38;29.24;101015.25;5062718;28;20045;-70
2022/04/21 11:35:04;;;;;;;2.17;1.38;;;;;;;17.88;29.83;101035.09;5062688;28;20050;-70
2022/04/21 11:37:48;;;;;;;4.38;1.83;;;;;;;17.70;30.29;101048.72;5063377;28;20048;-69
2022/04/21 11:40:25;;;;;;;2.70;1.52;;;;;;;17.53;30.50;101033.44;5062711;28;20084;-70
2022/04/21 11:42:51;;;;;;;3.25;1.17;;;;;;;17.31;31.07;101026.16;5062796;28;20032;-70
2022/04/21 11:45:25;;;;;;;4.30;1.30;;;;;;;17.32;31.39;101012.13;5044537;28;20049;-73
2022/04/21 11:47:51;;;;;;;3.95;1.10;;;;;;;17.30;31.92;101020.94;5062760;28;20035;-69
2022/04/21 11:50:21;;;;;;;6.72;1.30;;;;;;;17.31;32.13;101023.53;5044280;28;20093;-69
2022/04/21 11:52:47;;;;;;;2.40;1.10;;;;;;;17.37;31.63;101019.00;5063059;28;20045;-69
2022/04/21 11:55:15;;;;;;;2.70;1.25;;;;;;;17.31;31.79;101020.91;5062522;28;20017;-69
2022/04/21 11:57:44;;;;;;;8.13;1.38;;;;;;;17.30;31.73;101029.66;5062445;28;20146;-69
2022/04/21 12:00:11;;;;;;;1.50;0.95;;;;;;;17.31;31.42;101023.53;5062604;28;20029;-69
2022/04/21 12:08:10;;;;;;;1.30;0.88;;;;;;;17.14;31.64;101033.59;5066604;28;20151;-69
2022/04/21 12:10:36;;;;;;;4.50;1.63;;;;;;;17.19;31.27;101027.31;5066510;28;20017;-69
2022/04/21 12:13:02;;;;;;;2.97;1.05;;;;;;;17.01;31.22;101044.38;5066301;28;20028;-67
2022/04/21 12:15:29;;;;;;;2.20;1.10;;;;;;;16.87;31.52;101038.63;5066218;28;20032;-68
2022/04/21 12:18:12;;;;;;;3.97;1.83;;;;;;;16.71;31.60;101036.34;5066374;28;20040;-69
2022/04/21 12:20:52;;;;;;;2.72;1.23;;;;;;;16.73;31.62;101031.94;5066041;28;20036;-69